createdAt,value
2023-11-29T00:02:26.372Z,0.40
2023-11-29T00:04:53.104Z,0.40
2023-11-29T00:07:19.897Z,0.30
2023-11-29T00:09:47.355Z,0.30
2023-11-29T00:12:14.376Z,0.30
2023-11-29T00:14:41.236Z,0.30
2023-11-29T00:17:11.740Z,0.30
2023-11-29T00:19:42.006Z,0.30
2023-11-29T00:22:08.882Z,0.30
2023-11-29T00:24:35.661Z,0.20
2023-11-29T00:27:02.755Z,0.20
2023-11-29T00:29:29.510Z,0.20
2023-11-29T00:31:56.292Z,0.20
2023-11-29T00:34:23.353Z,0.20
2023-11-29T00:36:52.760Z,0.20
2023-11-29T00:39:21.785Z,0.20
2023-11-29T00:41:48.841Z,0.20
2023-11-29T00:44:15.872Z,0.20
2023-11-29T00:46:42.775Z,0.20
2023-11-29T00:49:09.548Z,0.20
2023-11-29T00:51:36.324Z,0.20
2023-11-29T00:54:03.349Z,0.20
2023-11-29T00:56:30.483Z,0.20
2023-11-29T00:58:57.253Z,0.20
2023-11-29T01:01:24.108Z,0.20
2023-11-29T01:03:51.118Z,0.20
2023-11-29T01:06:18.059Z,0.20
2023-11-29T01:08:44.910Z,0.20
2023-11-29T01:11:11.819Z,0.20
2023-11-29T01:13:38.637Z,0.20
2023-11-29T01:16:05.585Z,0.20
2023-11-29T01:18:34.155Z,0.20
2023-11-29T01:21:01.283Z,0.10
2023-11-29T01:23:28.127Z,0.20
2023-11-29T01:25:55.027Z,0.30
2023-11-29T01:28:23.318Z,0.30
2023-11-29T01:30:50.415Z,0.30
2023-11-29T01:33:17.278Z,0.30
2023-11-29T01:35:44.176Z,0.30
2023-11-29T01:38:11.095Z,0.40
2023-11-29T01:40:37.918Z,0.40
2023-11-29T01:43:04.762Z,0.40
2023-11-29T01:45:32.678Z,0.40
2023-11-29T01:48:00.067Z,0.50
2023-11-29T01:50:32.832Z,0.50
2023-11-29T01:52:59.638Z,0.50
2023-11-29T01:55:29.376Z,0.50
2023-11-29T01:57:58.172Z,0.50
2023-11-29T02:00:25.076Z,0.50
2023-11-29T02:02:52.398Z,0.60
2023-11-29T02:05:19.319Z,0.60
2023-11-29T02:07:46.629Z,0.60
2023-11-29T02:10:13.532Z,0.60
2023-11-29T02:12:40.479Z,0.60
2023-11-29T02:15:10.008Z,0.60
2023-11-29T02:17:37.133Z,0.60
2023-11-29T02:20:04.759Z,0.60
2023-11-29T02:22:33.770Z,0.60
2023-11-29T02:25:00.475Z,0.60
2023-11-29T02:27:28.220Z,0.60
2023-11-29T02:29:55.014Z,0.70
2023-11-29T02:32:21.766Z,0.70
2023-11-29T02:34:48.513Z,0.70
2023-11-29T02:37:15.816Z,0.70
2023-11-29T02:39:42.587Z,0.70
2023-11-29T02:42:09.611Z,0.70
2023-11-29T02:44:36.705Z,0.70
2023-11-29T02:47:03.550Z,0.70
2023-11-29T02:49:30.337Z,0.70
2023-11-29T02:51:57.097Z,0.70
2023-11-29T02:54:23.939Z,0.80
2023-11-29T02:56:50.707Z,0.70
2023-11-29T02:59:17.465Z,0.80
2023-11-29T03:01:44.690Z,0.70
2023-11-29T03:04:11.481Z,0.70
2023-11-29T03:06:38.218Z,0.70
2023-11-29T03:09:05.231Z,0.70
2023-11-29T03:11:31.982Z,0.70
2023-11-29T03:13:58.752Z,0.70
2023-11-29T03:16:25.762Z,0.70
2023-11-29T03:18:52.525Z,0.70
2023-11-29T03:21:19.634Z,0.70
2023-11-29T03:23:46.624Z,0.70
2023-11-29T03:26:13.428Z,0.70
2023-11-29T03:28:40.198Z,0.70
2023-11-29T03:31:07.061Z,0.80
2023-11-29T03:33:34.303Z,0.80
2023-11-29T03:36:01.158Z,0.80
2023-11-29T03:38:28.131Z,0.80
2023-11-29T03:40:55.034Z,0.80
2023-11-29T03:43:21.966Z,0.80
2023-11-29T03:45:48.791Z,0.80
2023-11-29T03:48:16.526Z,0.80
2023-11-29T03:50:44.905Z,0.80
2023-11-29T03:53:12.025Z,0.90
2023-11-29T03:55:39.696Z,0.80
2023-11-29T03:58:08.469Z,0.90
2023-11-29T04:00:35.543Z,0.90
2023-11-29T04:03:02.403Z,0.90
2023-11-29T04:05:29.412Z,0.90
2023-11-29T04:07:56.255Z,0.90
2023-11-29T04:10:23.037Z,0.90
2023-11-29T04:12:49.826Z,0.90
2023-11-29T04:15:16.772Z,0.90
2023-11-29T04:17:43.755Z,0.90
2023-11-29T04:20:11.259Z,0.90
2023-11-29T04:22:39.229Z,0.90
2023-11-29T04:25:08.086Z,0.90
2023-11-29T04:27:34.849Z,0.90
2023-11-29T04:30:02.589Z,0.90
2023-11-29T04:32:30.636Z,0.90
2023-11-29T04:34:57.670Z,0.90
2023-11-29T04:37:24.791Z,1.00
2023-11-29T04:39:52.056Z,1.00
2023-11-29T04:42:19.080Z,0.90
2023-11-29T04:44:46.074Z,0.90
2023-11-29T04:47:12.914Z,1.00
2023-11-29T04:49:41.191Z,0.90
2023-11-29T04:52:08.156Z,1.00
2023-11-29T04:54:34.905Z,1.00
2023-11-29T04:57:01.747Z,1.00
2023-11-29T04:59:28.663Z,1.00
2023-11-29T05:01:55.535Z,1.00
2023-11-29T05:04:24.290Z,1.00
2023-11-29T05:06:52.026Z,1.00
2023-11-29T05:09:18.746Z,1.00
2023-11-29T05:11:46.233Z,0.90
2023-11-29T05:14:15.100Z,1.00
2023-11-29T05:16:43.628Z,0.90
2023-11-29T05:19:10.659Z,1.00
2023-11-29T05:21:37.472Z,0.90
2023-11-29T05:24:04.604Z,1.00
2023-11-29T05:26:31.360Z,1.00
2023-11-29T05:28:58.175Z,1.00
2023-11-29T05:31:24.998Z,1.00
2023-11-29T05:33:53.240Z,1.00
2023-11-29T05:36:20.726Z,1.00
2023-11-29T05:38:47.687Z,1.00
2023-11-29T05:41:15.232Z,1.00
2023-11-29T05:43:42.080Z,1.10
2023-11-29T05:46:08.843Z,1.10
2023-11-29T05:48:35.651Z,1.10
2023-11-29T05:51:03.059Z,1.10
2023-11-29T05:53:29.848Z,1.10
2023-11-29T05:55:56.593Z,1.10
2023-11-29T05:58:24.060Z,1.00
2023-11-29T06:00:51.142Z,1.00
2023-11-29T06:03:17.932Z,1.00
2023-11-29T06:05:44.778Z,1.00
2023-11-29T06:08:11.545Z,1.00
2023-11-29T06:10:38.402Z,1.00
2023-11-29T06:13:05.119Z,1.00
2023-11-29T06:15:32.548Z,1.00
2023-11-29T06:18:01.892Z,1.00
2023-11-29T06:20:29.050Z,1.10
2023-11-29T06:22:55.948Z,1.10
2023-11-29T06:25:22.749Z,1.10
2023-11-29T06:27:49.755Z,1.10
2023-11-29T06:30:17.869Z,1.10
2023-11-29T06:32:45.614Z,1.10
2023-11-29T06:35:13.528Z,1.10
2023-11-29T06:37:40.866Z,1.20
2023-11-29T06:40:12.042Z,1.10
2023-11-29T06:42:41.198Z,1.20
2023-11-29T06:45:08.873Z,1.10
2023-11-29T06:47:36.056Z,1.20
2023-11-29T06:50:05.296Z,1.20
2023-11-29T06:52:35.382Z,1.20
2023-11-29T06:55:02.491Z,1.20
2023-11-29T06:57:29.386Z,1.20
2023-11-29T06:59:56.210Z,1.20
2023-11-29T07:02:23.668Z,1.20
2023-11-29T07:04:50.529Z,1.20
2023-11-29T07:07:17.759Z,1.20
2023-11-29T07:09:45.795Z,1.30
2023-11-29T07:12:13.898Z,1.30
2023-11-29T07:14:40.689Z,1.30
2023-11-29T07:17:07.424Z,1.30
2023-11-29T07:19:34.607Z,1.30
2023-11-29T07:22:01.635Z,1.30
2023-11-29T07:24:28.363Z,1.40
2023-11-29T07:26:55.239Z,1.40
2023-11-29T07:29:22.042Z,1.40
2023-11-29T07:31:48.942Z,1.40
2023-11-29T07:34:15.795Z,1.50
2023-11-29T07:36:50.530Z,1.50
2023-11-29T07:39:17.266Z,1.50
2023-11-29T07:41:44.044Z,1.50
2023-11-29T07:44:10.870Z,1.50
2023-11-29T07:46:37.696Z,1.50
2023-11-29T07:49:04.946Z,1.50
2023-11-29T07:51:31.700Z,1.60
2023-11-29T07:53:58.496Z,1.60
2023-11-29T07:56:25.258Z,1.70
2023-11-29T07:58:52.388Z,1.70
2023-11-29T08:01:19.239Z,1.70
2023-11-29T08:03:45.976Z,1.80
2023-11-29T08:06:12.778Z,1.80
2023-11-29T08:08:39.582Z,1.80
2023-11-29T08:11:06.522Z,1.80
2023-11-29T08:13:33.565Z,1.80
2023-11-29T08:16:00.516Z,1.90
2023-11-29T08:18:27.420Z,1.80
2023-11-29T08:20:54.402Z,1.80
2023-11-29T08:23:21.301Z,1.80
2023-11-29T08:25:48.153Z,1.80
2023-11-29T08:28:14.932Z,1.90
2023-11-29T08:30:41.773Z,1.90
2023-11-29T08:33:09.600Z,1.90
2023-11-29T08:35:37.282Z,1.90
2023-11-29T08:38:04.201Z,1.80
2023-11-29T08:40:31.008Z,1.80
2023-11-29T08:42:58.560Z,1.80
2023-11-29T08:45:25.498Z,1.80
2023-11-29T08:47:52.391Z,1.80
2023-11-29T08:50:19.536Z,1.80
2023-11-29T08:52:47.545Z,1.80
2023-11-29T08:55:14.406Z,1.80
2023-11-29T08:57:41.235Z,1.80
2023-11-29T09:00:10.479Z,1.80
2023-11-29T09:02:37.886Z,1.80
2023-11-29T09:05:05.401Z,1.80
2023-11-29T09:07:32.338Z,1.80
2023-11-29T09:10:06.459Z,1.80
2023-11-29T09:12:33.197Z,1.80
2023-11-29T09:15:00.368Z,1.80
2023-11-29T09:17:27.444Z,1.80
2023-11-29T09:19:57.083Z,1.80
2023-11-29T09:22:24.011Z,1.80
2023-11-29T09:24:51.729Z,1.80
2023-11-29T09:27:18.938Z,1.90
2023-11-29T09:29:45.898Z,1.90
2023-11-29T09:32:12.759Z,1.90
2023-11-29T09:34:39.583Z,1.90
2023-11-29T09:37:06.406Z,1.90
2023-11-29T09:39:33.218Z,1.90
2023-11-29T09:42:04.339Z,1.90
2023-11-29T09:44:34.337Z,2.00
2023-11-29T09:47:01.925Z,2.00
2023-11-29T09:49:29.592Z,2.00
2023-11-29T09:51:57.008Z,2.00
2023-11-29T09:54:24.391Z,2.00
2023-11-29T09:56:51.771Z,2.00
2023-11-29T09:59:19.929Z,2.00
2023-11-29T10:01:47.801Z,2.00
2023-11-29T10:04:15.450Z,2.00
2023-11-29T10:06:42.379Z,2.00
2023-11-29T10:09:13.453Z,2.00
2023-11-29T10:11:41.558Z,2.00
2023-11-29T10:14:08.800Z,2.00
2023-11-29T10:16:35.582Z,2.10
2023-11-29T10:19:04.206Z,2.10
2023-11-29T10:21:31.900Z,2.10
2023-11-29T10:23:58.835Z,2.10
2023-11-29T10:26:26.319Z,2.10
2023-11-29T10:28:55.020Z,2.10
2023-11-29T10:31:23.490Z,2.10
2023-11-29T10:33:51.244Z,2.10
2023-11-29T10:36:19.715Z,2.10
2023-11-29T10:38:54.485Z,2.10
2023-11-29T10:41:24.489Z,2.10
2023-11-29T10:43:53.508Z,2.10
2023-11-29T10:46:27.277Z,2.10
2023-11-29T10:49:03.117Z,2.10
2023-11-29T10:51:31.432Z,2.00
2023-11-29T10:53:59.770Z,2.00
2023-11-29T10:56:27.520Z,2.10
2023-11-29T10:59:14.536Z,2.00
2023-11-29T11:01:44.267Z,2.00
2023-11-29T11:04:12.030Z,2.10
2023-11-29T11:06:43.253Z,2.00
2023-11-29T11:09:41.952Z,2.00
2023-11-29T11:12:09.296Z,2.00
2023-11-29T11:14:55.589Z,2.00
2023-11-29T11:17:24.111Z,1.90
2023-11-29T11:19:51.958Z,1.90
2023-11-29T11:22:32.824Z,1.80
2023-11-29T11:25:25.979Z,1.80
2023-11-29T11:27:52.857Z,1.80
2023-11-29T11:30:23.732Z,1.70
2023-11-29T11:32:53.124Z,1.70
2023-11-29T11:35:22.069Z,1.70
2023-11-29T11:37:50.222Z,1.70
2023-11-29T11:40:18.803Z,1.70
2023-11-29T11:42:49.299Z,1.70
2023-11-29T11:45:17.581Z,1.70
2023-11-29T11:47:45.098Z,1.70
2023-11-29T11:50:15.915Z,1.70
2023-11-29T11:52:42.778Z,1.70
2023-11-29T11:55:11.655Z,1.70
2023-11-29T11:57:40.587Z,1.70
2023-11-29T12:00:10.031Z,1.60
2023-11-29T12:02:38.536Z,1.50
2023-11-29T12:05:07.501Z,1.50
2023-11-29T12:07:40.913Z,1.50
2023-11-29T12:10:13.977Z,1.50
2023-11-29T12:12:43.234Z,1.50
2023-11-29T12:15:18.271Z,1.50
2023-11-29T12:17:47.530Z,1.30
2023-11-29T12:20:14.926Z,1.30
2023-11-29T12:22:48.593Z,1.30
2023-11-29T12:25:23.329Z,1.50
2023-11-29T12:27:52.118Z,1.50
2023-11-29T12:30:20.461Z,1.40
2023-11-29T12:32:47.527Z,1.50
2023-11-29T12:35:17.024Z,1.40
2023-11-29T12:37:49.680Z,1.40
2023-11-29T12:40:21.446Z,1.40
2023-11-29T12:42:48.893Z,1.40
2023-11-29T12:45:16.663Z,1.40
2023-11-29T12:47:43.666Z,1.50
2023-11-29T12:50:12.630Z,1.50
2023-11-29T12:52:39.515Z,1.50
2023-11-29T12:55:06.853Z,1.50
2023-11-29T12:57:33.798Z,1.50
2023-11-29T13:00:00.842Z,1.40
2023-11-29T13:02:27.835Z,1.40
2023-11-29T13:04:54.635Z,1.40
2023-11-29T13:07:21.607Z,1.50
2023-11-29T13:09:48.461Z,1.50
2023-11-29T13:12:15.506Z,1.50
2023-11-29T13:14:44.968Z,1.70
2023-11-29T13:17:13.403Z,1.70
2023-11-29T13:19:43.150Z,1.60
2023-11-29T13:22:10.119Z,1.60
2023-11-29T13:24:37.372Z,1.70
2023-11-29T13:27:06.570Z,1.70
2023-11-29T13:29:35.016Z,1.60
2023-11-29T13:32:02.252Z,1.60
2023-11-29T13:34:30.928Z,1.50
2023-11-29T13:36:58.245Z,1.50
2023-11-29T13:39:28.362Z,1.40
2023-11-29T13:41:55.764Z,1.30
2023-11-29T13:44:25.869Z,1.30
2023-11-29T13:46:53.151Z,1.20
2023-11-29T13:49:20.216Z,1.20
2023-11-29T13:51:48.943Z,1.20
2023-11-29T13:54:15.712Z,1.20
2023-11-29T13:56:43.756Z,1.20
2023-11-29T13:59:10.756Z,1.20
2023-11-29T14:01:38.840Z,1.20
2023-11-29T14:04:05.963Z,1.30
2023-11-29T14:06:32.978Z,1.50
2023-11-29T14:08:59.742Z,1.60
2023-11-29T14:11:26.753Z,1.80
2023-11-29T14:13:54.686Z,1.80
2023-11-29T14:16:21.434Z,1.60
2023-11-29T14:18:48.226Z,1.50
2023-11-29T14:21:15.053Z,1.50
2023-11-29T14:23:41.808Z,1.40
2023-11-29T14:26:08.753Z,1.40
2023-11-29T14:28:39.201Z,1.30
2023-11-29T14:31:06.461Z,1.30
2023-11-29T14:33:36.546Z,1.20
2023-11-29T14:36:04.503Z,1.20
2023-11-29T14:38:31.364Z,1.20
2023-11-29T14:41:06.018Z,1.20
2023-11-29T14:43:38.495Z,1.10
2023-11-29T14:46:05.658Z,1.10
2023-11-29T14:48:33.602Z,1.00
2023-11-29T14:51:01.610Z,1.10
2023-11-29T14:53:28.453Z,1.00
2023-11-29T14:55:55.562Z,1.00
2023-11-29T14:58:22.817Z,1.00
2023-11-29T15:00:49.672Z,1.00
2023-11-29T15:03:16.482Z,1.00
2023-11-29T15:05:43.339Z,1.00
2023-11-29T15:08:10.157Z,1.00
2023-11-29T15:10:36.941Z,1.00
2023-11-29T15:13:03.717Z,1.00
2023-11-29T15:15:30.493Z,1.10
2023-11-29T15:17:58.906Z,1.00
2023-11-29T15:20:26.626Z,1.00
2023-11-29T15:22:53.437Z,1.00
2023-11-29T15:25:21.683Z,1.00
2023-11-29T15:27:48.810Z,1.00
2023-11-29T15:30:15.853Z,0.90
2023-11-29T15:32:42.794Z,0.90
2023-11-29T15:35:11.110Z,0.90
2023-11-29T15:37:38.054Z,0.90
2023-11-29T15:40:05.557Z,0.90
2023-11-29T15:42:32.432Z,0.90
2023-11-29T15:44:59.270Z,0.90
2023-11-29T15:47:26.060Z,0.90
2023-11-29T15:49:52.778Z,0.90
2023-11-29T15:52:19.585Z,0.90
2023-11-29T15:54:47.956Z,0.80
2023-11-29T15:57:15.812Z,0.80
2023-11-29T15:59:42.854Z,0.80
2023-11-29T16:02:09.733Z,0.80
2023-11-29T16:04:36.751Z,0.80
2023-11-29T16:07:03.869Z,0.80
2023-11-29T16:09:31.316Z,0.80
2023-11-29T16:11:58.140Z,0.70
2023-11-29T16:14:24.954Z,0.80
2023-11-29T16:16:51.930Z,0.80
2023-11-29T16:19:18.861Z,0.80
2023-11-29T16:21:45.658Z,0.80
2023-11-29T16:24:12.403Z,0.70
2023-11-29T16:26:39.291Z,0.80
2023-11-29T16:29:06.188Z,0.80
2023-11-29T16:31:33.007Z,0.70
2023-11-29T16:34:00.004Z,0.70
2023-11-29T16:36:26.945Z,0.60
2023-11-29T16:38:53.807Z,0.60
2023-11-29T16:41:20.679Z,0.50
2023-11-29T16:43:47.599Z,0.50
2023-11-29T16:46:14.629Z,0.50
2023-11-29T16:48:41.796Z,0.50
2023-11-29T16:51:10.000Z,0.50
2023-11-29T16:53:36.875Z,0.50
2023-11-29T16:56:07.018Z,0.50
2023-11-29T16:58:35.762Z,0.50
2023-11-29T17:01:03.354Z,0.50
2023-11-29T17:03:30.303Z,0.50
2023-11-29T17:05:57.493Z,0.50
2023-11-29T17:08:24.519Z,0.40
2023-11-29T17:10:51.964Z,0.50
2023-11-29T17:13:18.946Z,0.40
2023-11-29T17:15:45.683Z,0.40
2023-11-29T17:18:12.762Z,0.40
2023-11-29T17:20:40.801Z,0.40
2023-11-29T17:23:07.704Z,0.40
2023-11-29T17:25:34.505Z,0.40
2023-11-29T17:28:01.326Z,0.40
2023-11-29T17:30:28.071Z,0.50
2023-11-29T17:32:54.870Z,0.50
2023-11-29T17:35:21.647Z,0.50
2023-11-29T17:37:48.398Z,0.40
2023-11-29T17:40:15.357Z,0.50
2023-11-29T17:42:42.123Z,0.50
2023-11-29T17:45:09.709Z,0.50
2023-11-29T17:47:36.645Z,0.50
2023-11-29T17:50:05.806Z,0.50
2023-11-29T17:52:34.147Z,0.50
2023-11-29T17:55:01.068Z,0.60
2023-11-29T17:57:28.022Z,0.60
2023-11-29T17:59:54.836Z,0.60
2023-11-29T18:02:21.879Z,0.60
2023-11-29T18:04:48.608Z,0.60
2023-11-29T18:07:15.486Z,0.70
2023-11-29T18:09:42.256Z,0.70
2023-11-29T18:12:09.065Z,0.70
2023-11-29T18:14:35.862Z,0.70
2023-11-29T18:17:02.630Z,0.80
2023-11-29T18:19:29.499Z,0.80
2023-11-29T18:21:56.709Z,0.80
2023-11-29T18:24:23.415Z,0.80
2023-11-29T18:26:50.217Z,0.80
2023-11-29T18:29:16.992Z,0.80
2023-11-29T18:31:43.830Z,0.90
2023-11-29T18:34:11.365Z,0.90
2023-11-29T18:36:38.124Z,0.80
2023-11-29T18:39:05.146Z,0.80
2023-11-29T18:41:31.889Z,0.80
2023-11-29T18:43:58.667Z,0.80
2023-11-29T18:46:25.460Z,0.80
2023-11-29T18:48:52.347Z,0.80
2023-11-29T18:51:20.144Z,0.90
2023-11-29T18:53:47.221Z,0.90
2023-11-29T18:56:13.966Z,0.80
2023-11-29T18:58:42.046Z,0.90
2023-11-29T19:01:09.529Z,0.90
2023-11-29T19:03:36.588Z,0.80
2023-11-29T19:06:03.539Z,0.90
2023-11-29T19:08:32.348Z,0.90
2023-11-29T19:10:59.180Z,0.80
2023-11-29T19:13:25.929Z,0.80
2023-11-29T19:15:52.632Z,0.70
2023-11-29T19:18:19.490Z,0.70
2023-11-29T19:20:46.450Z,0.70
2023-11-29T19:23:22.432Z,0.70
2023-11-29T19:25:57.048Z,0.70
2023-11-29T19:28:23.770Z,0.70
2023-11-29T19:30:50.593Z,0.60
2023-11-29T19:33:17.445Z,0.70
2023-11-29T19:35:44.282Z,0.60
2023-11-29T19:38:10.998Z,0.60
2023-11-29T19:40:37.844Z,0.60
2023-11-29T19:43:04.504Z,0.60
2023-11-29T19:45:31.192Z,0.60
2023-11-29T19:47:57.991Z,0.50
2023-11-29T19:50:24.761Z,0.50
2023-11-29T19:52:57.168Z,0.40
2023-11-29T19:55:25.197Z,0.40
2023-11-29T19:57:51.918Z,0.40
2023-11-29T20:00:21.072Z,0.40
2023-11-29T20:02:49.499Z,0.40
2023-11-29T20:05:16.638Z,0.40
2023-11-29T20:07:45.120Z,0.30
2023-11-29T20:10:12.936Z,0.30
2023-11-29T20:12:39.726Z,0.40
2023-11-29T20:15:07.057Z,0.40
2023-11-29T20:17:33.840Z,0.40
2023-11-29T20:20:04.452Z,0.40
2023-11-29T20:22:37.247Z,0.40
2023-11-29T20:25:05.613Z,0.30
2023-11-29T20:27:32.418Z,0.40
2023-11-29T20:29:59.247Z,0.40
2023-11-29T20:32:26.107Z,0.40
2023-11-29T20:35:08.878Z,0.40
2023-11-29T20:37:39.680Z,0.30
2023-11-29T20:40:07.216Z,0.40
2023-11-29T20:42:33.991Z,0.30
2023-11-29T20:45:01.310Z,0.40
2023-11-29T20:47:29.907Z,0.40
2023-11-29T20:49:56.850Z,0.40
2023-11-29T20:52:23.790Z,0.30
2023-11-29T20:54:51.180Z,0.50
2023-11-29T20:57:17.939Z,0.50
2023-11-29T20:59:46.439Z,0.40
2023-11-29T21:02:13.981Z,0.30
2023-11-29T21:04:41.347Z,0.40
2023-11-29T21:07:10.177Z,0.50
2023-11-29T21:09:37.617Z,0.40
2023-11-29T21:12:04.671Z,0.40
2023-11-29T21:14:32.600Z,0.40
2023-11-29T21:16:59.446Z,0.30
2023-11-29T21:19:26.261Z,0.20
2023-11-29T21:21:53.040Z,0.10
2023-11-29T21:24:19.836Z,0.00
2023-11-29T21:26:46.951Z,0.00
2023-11-29T21:29:13.871Z,0.10
2023-11-29T21:31:40.864Z,0.30
2023-11-29T21:34:07.610Z,0.30
2023-11-29T21:36:34.314Z,0.30
2023-11-29T21:39:01.444Z,0.40
2023-11-29T21:41:29.961Z,0.40
2023-11-29T21:43:56.786Z,0.50
2023-11-29T21:46:23.690Z,0.40
2023-11-29T21:48:50.589Z,0.50
2023-11-29T21:51:17.573Z,0.40
2023-11-29T21:53:44.382Z,0.40
2023-11-29T21:56:12.257Z,0.40
2023-11-29T21:58:39.081Z,0.40
2023-11-29T22:01:06.197Z,0.30
2023-11-29T22:03:34.629Z,0.30
2023-11-29T22:06:01.530Z,0.40
2023-11-29T22:08:28.308Z,0.30
2023-11-29T22:10:55.031Z,0.30
2023-11-29T22:13:21.744Z,0.30
2023-11-29T22:15:48.458Z,0.30
2023-11-29T22:18:15.174Z,0.30
2023-11-29T22:20:42.048Z,0.30
2023-11-29T22:23:09.010Z,0.30
2023-11-29T22:25:35.723Z,0.30
2023-11-29T22:28:02.519Z,0.30
2023-11-29T22:30:29.283Z,0.30
2023-11-29T22:32:56.086Z,0.40
2023-11-29T22:35:22.898Z,0.40
2023-11-29T22:37:49.609Z,0.40
2023-11-29T22:40:16.324Z,0.40
2023-11-29T22:42:43.102Z,0.50
2023-11-29T22:45:10.047Z,0.40
2023-11-29T22:47:36.903Z,0.50
2023-11-29T22:50:03.960Z,0.40
2023-11-29T22:52:30.797Z,0.40
2023-11-29T22:54:57.737Z,0.50
2023-11-29T22:57:24.592Z,0.50
2023-11-29T22:59:51.346Z,0.50
2023-11-29T23:02:18.241Z,0.50
2023-11-29T23:04:45.048Z,0.50
2023-11-29T23:07:12.482Z,0.40
2023-11-29T23:09:41.466Z,0.50
2023-11-29T23:12:08.539Z,0.50
2023-11-29T23:14:35.356Z,0.50
2023-11-29T23:17:02.123Z,0.50
2023-11-29T23:19:29.034Z,0.40
2023-11-29T23:21:55.709Z,0.40
2023-11-29T23:24:22.505Z,0.30
2023-11-29T23:26:49.270Z,0.30
2023-11-29T23:29:15.992Z,0.30
2023-11-29T23:31:42.676Z,0.30
2023-11-29T23:34:09.451Z,0.20
2023-11-29T23:36:36.162Z,0.10
2023-11-29T23:39:02.905Z,0.00
2023-11-29T23:41:29.661Z,0.00
2023-11-29T23:43:56.504Z,0.00
2023-11-29T23:46:23.254Z,0.10
2023-11-29T23:48:50.153Z,0.10
2023-11-29T23:51:16.937Z,0.20
2023-11-29T23:53:45.574Z,0.20
2023-11-29T23:56:13.970Z,0.10
2023-11-29T23:58:41.906Z,0.10
